sensor_id;sensor_type;location;lat;lon;timestamp;P1;durP1;ratioP1;P2;durP2;ratioP2
25057;SDS011;13057;50.978;11.034;2023-05-10T00:01:51;4.05;;;2.47;;
25057;SDS011;13057;50.978;11.034;2023-05-10T00:04:17;3.25;;;2.20;;
25057;SDS011;13057;50.978;11.034;2023-05-10T00:06:43;3.78;;;2.40;;
25057;SDS011;13057;50.978;11.034;2023-05-10T00:09:09;3.75;;;2.13;;
25057;SDS011;13057;50.978;11.034;2023-05-10T00:11:35;3.85;;;2.35;;
25057;SDS011;13057;50.978;11.034;2023-05-10T00:14:00;2.67;;;2.30;;
25057;SDS011;13057;50.978;11.034;2023-05-10T00:16:26;3.83;;;2.40;;
25057;SDS011;13057;50.978;11.034;2023-05-10T00:18:52;3.15;;;2.22;;
25057;SDS011;13057;50.978;11.034;2023-05-10T00:21:18;5.05;;;2.30;;
25057;SDS011;13057;50.978;11.034;2023-05-10T00:23:44;3.13;;;2.30;;
25057;SDS011;13057;50.978;11.034;2023-05-10T00:26:10;3.22;;;2.45;;
25057;SDS011;13057;50.978;11.034;2023-05-10T00:28:36;8.23;;;2.35;;
25057;SDS011;13057;50.978;11.034;2023-05-10T00:31:02;2.85;;;2.15;;
25057;SDS011;13057;50.978;11.034;2023-05-10T00:33:28;3.47;;;2.40;;
25057;SDS011;13057;50.978;11.034;2023-05-10T00:35:54;3.55;;;2.10;;
25057;SDS011;13057;50.978;11.034;2023-05-10T00:38:20;5.32;;;2.35;;
25057;SDS011;13057;50.978;11.034;2023-05-10T00:40:46;6.45;;;2.65;;
25057;SDS011;13057;50.978;11.034;2023-05-10T00:43:12;4.18;;;2.42;;
25057;SDS011;13057;50.978;11.034;2023-05-10T00:45:37;2.28;;;1.90;;
25057;SDS011;13057;50.978;11.034;2023-05-10T00:48:05;4.95;;;2.42;;
25057;SDS011;13057;50.978;11.034;2023-05-10T00:50:32;4.65;;;2.50;;
25057;SDS011;13057;50.978;11.034;2023-05-10T00:52:59;3.45;;;2.40;;
25057;SDS011;13057;50.978;11.034;2023-05-10T00:55:25;3.17;;;2.45;;
25057;SDS011;13057;50.978;11.034;2023-05-10T00:57:52;3.40;;;2.53;;
25057;SDS011;13057;50.978;11.034;2023-05-10T01:00:18;4.00;;;2.53;;
25057;SDS011;13057;50.978;11.034;2023-05-10T01:02:45;3.13;;;2.40;;
25057;SDS011;13057;50.978;11.034;2023-05-10T01:05:11;3.42;;;2.38;;
25057;SDS011;13057;50.978;11.034;2023-05-10T01:07:38;5.55;;;2.42;;
25057;SDS011;13057;50.978;11.034;2023-05-10T01:10:05;3.15;;;2.33;;
25057;SDS011;13057;50.978;11.034;2023-05-10T01:12:33;3.55;;;2.15;;
25057;SDS011;13057;50.978;11.034;2023-05-10T01:15:01;3.63;;;2.65;;
25057;SDS011;13057;50.978;11.034;2023-05-10T01:17:28;6.20;;;2.80;;
25057;SDS011;13057;50.978;11.034;2023-05-10T01:19:55;4.28;;;2.75;;
25057;SDS011;13057;50.978;11.034;2023-05-10T01:25:19;3.15;;;2.28;;
25057;SDS011;13057;50.978;11.034;2023-05-10T01:28:12;3.55;;;2.55;;
25057;SDS011;13057;50.978;11.034;2023-05-10T01:31:00;3.25;;;2.30;;
25057;SDS011;13057;50.978;11.034;2023-05-10T01:33:43;3.28;;;2.10;;
25057;SDS011;13057;50.978;11.034;2023-05-10T01:36:23;5.72;;;2.50;;
25057;SDS011;13057;50.978;11.034;2023-05-10T01:39:04;6.18;;;2.30;;
25057;SDS011;13057;50.978;11.034;2023-05-10T01:42:11;7.20;;;2.20;;
25057;SDS011;13057;50.978;11.034;2023-05-10T01:44:31;6.82;;;2.63;;
25057;SDS011;13057;50.978;11.034;2023-05-10T01:47:06;3.75;;;2.33;;
25057;SDS011;13057;50.978;11.034;2023-05-10T01:49:38;5.72;;;2.42;;
25057;SDS011;13057;50.978;11.034;2023-05-10T01:52:09;4.93;;;2.30;;
25057;SDS011;13057;50.978;11.034;2023-05-10T01:54:38;7.65;;;2.45;;
25057;SDS011;13057;50.978;11.034;2023-05-10T01:57:10;3.45;;;2.50;;
25057;SDS011;13057;50.978;11.034;2023-05-10T01:59:39;4.32;;;2.28;;
25057;SDS011;13057;50.978;11.034;2023-05-10T02:02:08;4.22;;;2.42;;
25057;SDS011;13057;50.978;11.034;2023-05-10T02:04:37;7.32;;;2.38;;
25057;SDS011;13057;50.978;11.034;2023-05-10T02:07:05;4.00;;;2.20;;
25057;SDS011;13057;50.978;11.034;2023-05-10T02:09:32;3.42;;;2.47;;
25057;SDS011;13057;50.978;11.034;2023-05-10T02:12:00;5.20;;;2.47;;
25057;SDS011;13057;50.978;11.034;2023-05-10T02:14:30;4.55;;;2.33;;
25057;SDS011;13057;50.978;11.034;2023-05-10T02:16:59;5.22;;;2.85;;
25057;SDS011;13057;50.978;11.034;2023-05-10T02:19:27;3.78;;;2.33;;
25057;SDS011;13057;50.978;11.034;2023-05-10T02:21:54;5.47;;;2.67;;
25057;SDS011;13057;50.978;11.034;2023-05-10T02:24:21;3.85;;;2.83;;
25057;SDS011;13057;50.978;11.034;2023-05-10T02:26:49;2.97;;;2.28;;
25057;SDS011;13057;50.978;11.034;2023-05-10T02:29:18;8.73;;;2.85;;
25057;SDS011;13057;50.978;11.034;2023-05-10T02:31:45;5.25;;;2.55;;
25057;SDS011;13057;50.978;11.034;2023-05-10T02:34:11;3.42;;;2.40;;
25057;SDS011;13057;50.978;11.034;2023-05-10T02:36:38;6.70;;;2.58;;
25057;SDS011;13057;50.978;11.034;2023-05-10T02:39:05;4.57;;;2.58;;
25057;SDS011;13057;50.978;11.034;2023-05-10T02:41:35;4.95;;;2.55;;
25057;SDS011;13057;50.978;11.034;2023-05-10T02:44:03;5.15;;;2.58;;
25057;SDS011;13057;50.978;11.034;2023-05-10T02:46:31;4.22;;;2.60;;
25057;SDS011;13057;50.978;11.034;2023-05-10T02:48:57;4.88;;;2.60;;
25057;SDS011;13057;50.978;11.034;2023-05-10T02:51:24;3.85;;;2.53;;
25057;SDS011;13057;50.978;11.034;2023-05-10T02:53:53;4.20;;;2.85;;
25057;SDS011;13057;50.978;11.034;2023-05-10T02:56:25;6.13;;;2.65;;
25057;SDS011;13057;50.978;11.034;2023-05-10T02:58:56;4.60;;;2.88;;
25057;SDS011;13057;50.978;11.034;2023-05-10T03:01:22;7.68;;;2.60;;
25057;SDS011;13057;50.978;11.034;2023-05-10T03:03:48;3.53;;;2.72;;
25057;SDS011;13057;50.978;11.034;2023-05-10T03:06:14;3.00;;;2.40;;
25057;SDS011;13057;50.978;11.034;2023-05-10T03:08:41;3.83;;;2.88;;
25057;SDS011;13057;50.978;11.034;2023-05-10T03:11:25;4.88;;;2.85;;
25057;SDS011;13057;50.978;11.034;2023-05-10T03:14:14;4.88;;;2.60;;
25057;SDS011;13057;50.978;11.034;2023-05-10T03:16:56;5.40;;;2.70;;
25057;SDS011;13057;50.978;11.034;2023-05-10T03:19:39;3.50;;;2.80;;
25057;SDS011;13057;50.978;11.034;2023-05-10T03:22:13;5.93;;;2.50;;
25057;SDS011;13057;50.978;11.034;2023-05-10T03:24:47;4.32;;;2.45;;
25057;SDS011;13057;50.978;11.034;2023-05-10T03:27:14;6.80;;;4.85;;
25057;SDS011;13057;50.978;11.034;2023-05-10T03:29:40;3.75;;;2.88;;
25057;SDS011;13057;50.978;11.034;2023-05-10T03:32:08;3.10;;;2.53;;
25057;SDS011;13057;50.978;11.034;2023-05-10T03:34:34;6.20;;;2.80;;
25057;SDS011;13057;50.978;11.034;2023-05-10T03:37:07;5.03;;;3.20;;
25057;SDS011;13057;50.978;11.034;2023-05-10T03:39:33;3.75;;;2.75;;
25057;SDS011;13057;50.978;11.034;2023-05-10T03:41:59;4.80;;;2.58;;
25057;SDS011;13057;50.978;11.034;2023-05-10T03:44:24;4.28;;;3.05;;
25057;SDS011;13057;50.978;11.034;2023-05-10T03:46:50;3.75;;;2.78;;
25057;SDS011;13057;50.978;11.034;2023-05-10T03:49:16;5.15;;;2.80;;
25057;SDS011;13057;50.978;11.034;2023-05-10T03:51:42;4.63;;;2.90;;
25057;SDS011;13057;50.978;11.034;2023-05-10T03:54:08;4.57;;;3.03;;
25057;SDS011;13057;50.978;11.034;2023-05-10T03:56:34;4.88;;;3.00;;
25057;SDS011;13057;50.978;11.034;2023-05-10T03:59:00;4.15;;;3.40;;
25057;SDS011;13057;50.978;11.034;2023-05-10T04:01:26;3.58;;;2.95;;
25057;SDS011;13057;50.978;11.034;2023-05-10T04:03:52;6.43;;;3.20;;
25057;SDS011;13057;50.978;11.034;2023-05-10T04:06:17;7.25;;;3.40;;
25057;SDS011;13057;50.978;11.034;2023-05-10T04:08:44;6.18;;;3.35;;
25057;SDS011;13057;50.978;11.034;2023-05-10T04:11:10;4.90;;;3.35;;
25057;SDS011;13057;50.978;11.034;2023-05-10T04:13:37;11.43;;;3.60;;
25057;SDS011;13057;50.978;11.034;2023-05-10T04:16:03;4.75;;;3.20;;
25057;SDS011;13057;50.978;11.034;2023-05-10T04:18:30;4.72;;;3.53;;
25057;SDS011;13057;50.978;11.034;2023-05-10T04:20:57;3.78;;;3.13;;
25057;SDS011;13057;50.978;11.034;2023-05-10T04:23:22;7.35;;;3.47;;
25057;SDS011;13057;50.978;11.034;2023-05-10T04:25:48;4.32;;;3.53;;
25057;SDS011;13057;50.978;11.034;2023-05-10T04:28:14;7.70;;;4.03;;
25057;SDS011;13057;50.978;11.034;2023-05-10T04:30:40;7.70;;;3.67;;
25057;SDS011;13057;50.978;11.034;2023-05-10T04:33:06;4.55;;;3.42;;
25057;SDS011;13057;50.978;11.034;2023-05-10T04:35:32;4.40;;;3.72;;
25057;SDS011;13057;50.978;11.034;2023-05-10T04:37:59;11.90;;;4.03;;
25057;SDS011;13057;50.978;11.034;2023-05-10T04:40:25;11.48;;;5.95;;
25057;SDS011;13057;50.978;11.034;2023-05-10T04:42:51;6.82;;;4.00;;
25057;SDS011;13057;50.978;11.034;2023-05-10T04:45:17;4.95;;;4.32;;
25057;SDS011;13057;50.978;11.034;2023-05-10T04:47:43;5.35;;;4.00;;
25057;SDS011;13057;50.978;11.034;2023-05-10T04:50:09;4.63;;;3.58;;
25057;SDS011;13057;50.978;11.034;2023-05-10T04:52:35;6.90;;;3.80;;
25057;SDS011;13057;50.978;11.034;2023-05-10T04:55:01;7.05;;;3.67;;
25057;SDS011;13057;50.978;11.034;2023-05-10T04:57:27;8.05;;;4.15;;
25057;SDS011;13057;50.978;11.034;2023-05-10T04:59:53;4.43;;;3.80;;
25057;SDS011;13057;50.978;11.034;2023-05-10T05:02:19;5.32;;;4.05;;
25057;SDS011;13057;50.978;11.034;2023-05-10T05:04:45;9.93;;;4.90;;
25057;SDS011;13057;50.978;11.034;2023-05-10T05:07:11;6.25;;;4.70;;
25057;SDS011;13057;50.978;11.034;2023-05-10T05:09:37;10.15;;;4.93;;
25057;SDS011;13057;50.978;11.034;2023-05-10T05:12:03;6.72;;;4.45;;
25057;SDS011;13057;50.978;11.034;2023-05-10T05:14:29;6.47;;;4.28;;
25057;SDS011;13057;50.978;11.034;2023-05-10T05:16:55;7.10;;;4.45;;
25057;SDS011;13057;50.978;11.034;2023-05-10T05:19:21;8.20;;;4.82;;
25057;SDS011;13057;50.978;11.034;2023-05-10T05:21:47;10.68;;;5.10;;
25057;SDS011;13057;50.978;11.034;2023-05-10T05:24:13;7.28;;;5.15;;
25057;SDS011;13057;50.978;11.034;2023-05-10T05:26:40;5.32;;;3.78;;
25057;SDS011;13057;50.978;11.034;2023-05-10T05:29:06;8.23;;;4.63;;
25057;SDS011;13057;50.978;11.034;2023-05-10T05:31:32;6.82;;;4.50;;
25057;SDS011;13057;50.978;11.034;2023-05-10T05:33:58;7.28;;;4.45;;
25057;SDS011;13057;50.978;11.034;2023-05-10T05:36:24;9.80;;;5.15;;
25057;SDS011;13057;50.978;11.034;2023-05-10T05:38:50;11.13;;;5.47;;
25057;SDS011;13057;50.978;11.034;2023-05-10T05:41:15;19.33;;;6.32;;
25057;SDS011;13057;50.978;11.034;2023-05-10T05:43:44;6.53;;;4.63;;
25057;SDS011;13057;50.978;11.034;2023-05-10T05:46:13;8.20;;;4.57;;
25057;SDS011;13057;50.978;11.034;2023-05-10T05:48:39;8.02;;;4.43;;
25057;SDS011;13057;50.978;11.034;2023-05-10T05:51:04;5.63;;;4.15;;
25057;SDS011;13057;50.978;11.034;2023-05-10T05:53:30;63.40;;;15.82;;
25057;SDS011;13057;50.978;11.034;2023-05-10T05:55:57;10.45;;;5.25;;
25057;SDS011;13057;50.978;11.034;2023-05-10T05:58:24;20.95;;;7.32;;
25057;SDS011;13057;50.978;11.034;2023-05-10T06:00:50;8.13;;;4.70;;
25057;SDS011;13057;50.978;11.034;2023-05-10T06:03:18;7.95;;;4.10;;
25057;SDS011;13057;50.978;11.034;2023-05-10T06:05:44;6.78;;;4.43;;
25057;SDS011;13057;50.978;11.034;2023-05-10T06:08:10;7.10;;;3.95;;
25057;SDS011;13057;50.978;11.034;2023-05-10T06:10:36;7.65;;;3.80;;
25057;SDS011;13057;50.978;11.034;2023-05-10T06:13:02;8.63;;;3.90;;
25057;SDS011;13057;50.978;11.034;2023-05-10T06:15:28;5.80;;;4.13;;
25057;SDS011;13057;50.978;11.034;2023-05-10T06:17:54;7.38;;;4.18;;
25057;SDS011;13057;50.978;11.034;2023-05-10T06:20:20;7.47;;;3.75;;
25057;SDS011;13057;50.978;11.034;2023-05-10T06:22:46;4.80;;;3.70;;
25057;SDS011;13057;50.978;11.034;2023-05-10T06:25:14;4.95;;;3.50;;
25057;SDS011;13057;50.978;11.034;2023-05-10T06:27:42;6.70;;;4.15;;
25057;SDS011;13057;50.978;11.034;2023-05-10T06:30:09;4.57;;;3.25;;
25057;SDS011;13057;50.978;11.034;2023-05-10T06:32:36;4.00;;;3.10;;
25057;SDS011;13057;50.978;11.034;2023-05-10T06:35:02;8.68;;;3.35;;
25057;SDS011;13057;50.978;11.034;2023-05-10T06:37:28;5.43;;;2.80;;
25057;SDS011;13057;50.978;11.034;2023-05-10T06:39:54;7.20;;;3.35;;
25057;SDS011;13057;50.978;11.034;2023-05-10T06:42:20;5.78;;;2.50;;
25057;SDS011;13057;50.978;11.034;2023-05-10T06:44:46;3.60;;;2.42;;
25057;SDS011;13057;50.978;11.034;2023-05-10T06:47:11;2.88;;;2.30;;
25057;SDS011;13057;50.978;11.034;2023-05-10T06:49:37;3.78;;;2.30;;
25057;SDS011;13057;50.978;11.034;2023-05-10T06:52:03;4.32;;;2.60;;
25057;SDS011;13057;50.978;11.034;2023-05-10T06:54:29;2.40;;;2.05;;
25057;SDS011;13057;50.978;11.034;2023-05-10T06:56:55;3.85;;;2.60;;
25057;SDS011;13057;50.978;11.034;2023-05-10T06:59:21;3.47;;;2.10;;
25057;SDS011;13057;50.978;11.034;2023-05-10T07:01:47;3.35;;;2.00;;
25057;SDS011;13057;50.978;11.034;2023-05-10T07:04:13;4.55;;;1.95;;
25057;SDS011;13057;50.978;11.034;2023-05-10T07:06:39;3.58;;;2.10;;
25057;SDS011;13057;50.978;11.034;2023-05-10T07:09:05;3.72;;;2.28;;
25057;SDS011;13057;50.978;11.034;2023-05-10T07:11:32;5.95;;;1.83;;
25057;SDS011;13057;50.978;11.034;2023-05-10T07:13:58;3.30;;;1.95;;
25057;SDS011;13057;50.978;11.034;2023-05-10T07:16:24;5.20;;;1.95;;
25057;SDS011;13057;50.978;11.034;2023-05-10T07:18:50;3.22;;;1.58;;
25057;SDS011;13057;50.978;11.034;2023-05-10T07:21:18;2.10;;;1.50;;
25057;SDS011;13057;50.978;11.034;2023-05-10T07:23:44;2.85;;;1.60;;
25057;SDS011;13057;50.978;11.034;2023-05-10T07:26:09;3.33;;;1.60;;
25057;SDS011;13057;50.978;11.034;2023-05-10T07:28:36;2.22;;;1.40;;
25057;SDS011;13057;50.978;11.034;2023-05-10T07:31:02;2.13;;;1.60;;
25057;SDS011;13057;50.978;11.034;2023-05-10T07:33:28;3.00;;;2.13;;
25057;SDS011;13057;50.978;11.034;2023-05-10T07:35:54;4.40;;;1.33;;
25057;SDS011;13057;50.978;11.034;2023-05-10T07:38:20;2.78;;;1.73;;
25057;SDS011;13057;50.978;11.034;2023-05-10T07:40:46;2.38;;;1.65;;
25057;SDS011;13057;50.978;11.034;2023-05-10T07:43:15;2.03;;;1.48;;
25057;SDS011;13057;50.978;11.034;2023-05-10T07:45:41;4.50;;;1.48;;
25057;SDS011;13057;50.978;11.034;2023-05-10T07:48:07;1.38;;;0.98;;
25057;SDS011;13057;50.978;11.034;2023-05-10T07:50:33;3.67;;;1.20;;
25057;SDS011;13057;50.978;11.034;2023-05-10T07:52:59;1.23;;;0.70;;
25057;SDS011;13057;50.978;11.034;2023-05-10T07:55:25;2.65;;;1.70;;
25057;SDS011;13057;50.978;11.034;2023-05-10T07:57:51;11.65;;;7.90;;
25057;SDS011;13057;50.978;11.034;2023-05-10T08:00:18;6.30;;;3.60;;
25057;SDS011;13057;50.978;11.034;2023-05-10T08:02:44;4.82;;;1.35;;
25057;SDS011;13057;50.978;11.034;2023-05-10T08:05:10;2.67;;;0.73;;
25057;SDS011;13057;50.978;11.034;2023-05-10T08:07:37;0.70;;;0.50;;
25057;SDS011;13057;50.978;11.034;2023-05-10T08:10:03;0.93;;;0.80;;
25057;SDS011;13057;50.978;11.034;2023-05-10T08:12:30;0.70;;;0.60;;
25057;SDS011;13057;50.978;11.034;2023-05-10T08:14:56;0.68;;;0.30;;
25057;SDS011;13057;50.978;11.034;2023-05-10T08:17:22;5.63;;;0.70;;
25057;SDS011;13057;50.978;11.034;2023-05-10T08:19:48;2.97;;;0.50;;
25057;SDS011;13057;50.978;11.034;2023-05-10T08:22:14;1.17;;;0.32;;
25057;SDS011;13057;50.978;11.034;2023-05-10T08:24:39;0.32;;;0.30;;
25057;SDS011;13057;50.978;11.034;2023-05-10T08:27:07;0.50;;;0.40;;
25057;SDS011;13057;50.978;11.034;2023-05-10T08:29:34;0.55;;;0.50;;
25057;SDS011;13057;50.978;11.034;2023-05-10T08:32:00;1.65;;;0.80;;
25057;SDS011;13057;50.978;11.034;2023-05-10T08:34:27;1.13;;;0.52;;
25057;SDS011;13057;50.978;11.034;2023-05-10T08:36:54;3.75;;;0.77;;
25057;SDS011;13057;50.978;11.034;2023-05-10T08:39:20;2.28;;;0.85;;
25057;SDS011;13057;50.978;11.034;2023-05-10T08:41:46;17.98;;;10.18;;
25057;SDS011;13057;50.978;11.034;2023-05-10T08:44:13;0.80;;;0.50;;
25057;SDS011;13057;50.978;11.034;2023-05-10T08:46:41;0.70;;;0.50;;
25057;SDS011;13057;50.978;11.034;2023-05-10T08:49:13;0.65;;;0.47;;
25057;SDS011;13057;50.978;11.034;2023-05-10T08:51:42;3.65;;;0.68;;
25057;SDS011;13057;50.978;11.034;2023-05-10T08:54:12;0.70;;;0.32;;
25057;SDS011;13057;50.978;11.034;2023-05-10T08:56:38;0.90;;;0.50;;
25057;SDS011;13057;50.978;11.034;2023-05-10T08:59:04;0.40;;;0.30;;
25057;SDS011;13057;50.978;11.034;2023-05-10T09:01:31;1.58;;;0.80;;
25057;SDS011;13057;50.978;11.034;2023-05-10T09:03:57;3.22;;;1.20;;
25057;SDS011;13057;50.978;11.034;2023-05-10T09:06:24;2.78;;;1.35;;
25057;SDS011;13057;50.978;11.034;2023-05-10T09:08:50;1.27;;;1.08;;
25057;SDS011;13057;50.978;11.034;2023-05-10T09:11:17;0.95;;;0.57;;
25057;SDS011;13057;50.978;11.034;2023-05-10T09:13:43;1.33;;;0.80;;
25057;SDS011;13057;50.978;11.034;2023-05-10T09:16:09;3.00;;;2.00;;
25057;SDS011;13057;50.978;11.034;2023-05-10T09:18:35;2.58;;;0.98;;
25057;SDS011;13057;50.978;11.034;2023-05-10T09:21:01;1.55;;;0.52;;
25057;SDS011;13057;50.978;11.034;2023-05-10T09:23:27;4.55;;;0.60;;
25057;SDS011;13057;50.978;11.034;2023-05-10T09:26:01;1.17;;;0.60;;
25057;SDS011;13057;50.978;11.034;2023-05-10T09:28:31;4.95;;;0.68;;
25057;SDS011;13057;50.978;11.034;2023-05-10T09:30:58;2.70;;;1.70;;
25057;SDS011;13057;50.978;11.034;2023-05-10T09:33:24;1.25;;;0.80;;
25057;SDS011;13057;50.978;11.034;2023-05-10T09:35:51;1.92;;;0.77;;
25057;SDS011;13057;50.978;11.034;2023-05-10T09:38:17;7.65;;;1.33;;
25057;SDS011;13057;50.978;11.034;2023-05-10T09:40:45;0.85;;;0.60;;
25057;SDS011;13057;50.978;11.034;2023-05-10T09:43:20;0.55;;;0.50;;
25057;SDS011;13057;50.978;11.034;2023-05-10T09:45:45;0.93;;;0.80;;
25057;SDS011;13057;50.978;11.034;2023-05-10T09:48:14;3.13;;;0.90;;
25057;SDS011;13057;50.978;11.034;2023-05-10T09:50:41;0.47;;;0.32;;
25057;SDS011;13057;50.978;11.034;2023-05-10T09:53:06;1.73;;;0.60;;
25057;SDS011;13057;50.978;11.034;2023-05-10T09:55:38;1.95;;;0.52;;
25057;SDS011;13057;50.978;11.034;2023-05-10T09:58:06;1.83;;;1.17;;
25057;SDS011;13057;50.978;11.034;2023-05-10T10:00:36;3.80;;;0.70;;
25057;SDS011;13057;50.978;11.034;2023-05-10T10:03:04;1.42;;;0.73;;
25057;SDS011;13057;50.978;11.034;2023-05-10T10:05:32;1.85;;;0.60;;
25057;SDS011;13057;50.978;11.034;2023-05-10T10:08:00;1.27;;;0.60;;
25057;SDS011;13057;50.978;11.034;2023-05-10T10:10:28;1.20;;;0.52;;
25057;SDS011;13057;50.978;11.034;2023-05-10T10:12:56;1.00;;;0.57;;
25057;SDS011;13057;50.978;11.034;2023-05-10T10:15:25;0.70;;;0.60;;
25057;SDS011;13057;50.978;11.034;2023-05-10T10:17:51;0.70;;;0.63;;
25057;SDS011;13057;50.978;11.034;2023-05-10T10:20:19;0.50;;;0.50;;
25057;SDS011;13057;50.978;11.034;2023-05-10T10:22:46;0.55;;;0.40;;
25057;SDS011;13057;50.978;11.034;2023-05-10T10:25:13;0.90;;;0.40;;
25057;SDS011;13057;50.978;11.034;2023-05-10T10:27:53;0.65;;;0.40;;
25057;SDS011;13057;50.978;11.034;2023-05-10T10:30:39;0.47;;;0.40;;
25057;SDS011;13057;50.978;11.034;2023-05-10T10:33:26;2.47;;;1.20;;
25057;SDS011;13057;50.978;11.034;2023-05-10T10:36:02;1.75;;;0.55;;
25057;SDS011;13057;50.978;11.034;2023-05-10T10:38:54;1.65;;;0.65;;
25057;SDS011;13057;50.978;11.034;2023-05-10T10:41:48;0.52;;;0.50;;
25057;SDS011;13057;50.978;11.034;2023-05-10T10:44:33;2.38;;;0.70;;
25057;SDS011;13057;50.978;11.034;2023-05-10T10:47:06;0.77;;;0.43;;
25057;SDS011;13057;50.978;11.034;2023-05-10T10:49:45;3.35;;;1.90;;
25057;SDS011;13057;50.978;11.034;2023-05-10T10:52:21;1.83;;;1.08;;
25057;SDS011;13057;50.978;11.034;2023-05-10T10:55:00;4.80;;;2.30;;
25057;SDS011;13057;50.978;11.034;2023-05-10T10:57:42;1.45;;;0.85;;
25057;SDS011;13057;50.978;11.034;2023-05-10T11:02:51;1.02;;;0.77;;
25057;SDS011;13057;50.978;11.034;2023-05-10T11:05:36;1.02;;;0.93;;
25057;SDS011;13057;50.978;11.034;2023-05-10T11:08:09;3.58;;;1.98;;
25057;SDS011;13057;50.978;11.034;2023-05-10T11:10:38;1.42;;;1.25;;
25057;SDS011;13057;50.978;11.034;2023-05-10T11:13:07;2.88;;;0.60;;
25057;SDS011;13057;50.978;11.034;2023-05-10T11:15:35;1.80;;;0.63;;
25057;SDS011;13057;50.978;11.034;2023-05-10T11:20:44;2.72;;;0.77;;
25057;SDS011;13057;50.978;11.034;2023-05-10T11:23:16;1.20;;;0.98;;
25057;SDS011;13057;50.978;11.034;2023-05-10T11:25:43;1.00;;;0.77;;
25057;SDS011;13057;50.978;11.034;2023-05-10T11:28:10;1.50;;;0.88;;
25057;SDS011;13057;50.978;11.034;2023-05-10T11:30:38;2.03;;;1.20;;
25057;SDS011;13057;50.978;11.034;2023-05-10T11:33:05;1.75;;;1.23;;
25057;SDS011;13057;50.978;11.034;2023-05-10T11:35:37;3.50;;;1.30;;
25057;SDS011;13057;50.978;11.034;2023-05-10T11:38:06;3.20;;;1.50;;
25057;SDS011;13057;50.978;11.034;2023-05-10T11:40:32;2.58;;;1.60;;
25057;SDS011;13057;50.978;11.034;2023-05-10T11:42:58;3.85;;;1.40;;
25057;SDS011;13057;50.978;11.034;2023-05-10T11:45:25;1.60;;;0.85;;
25057;SDS011;13057;50.978;11.034;2023-05-10T11:47:51;1.13;;;0.85;;
25057;SDS011;13057;50.978;11.034;2023-05-10T11:50:17;1.15;;;0.80;;
25057;SDS011;13057;50.978;11.034;2023-05-10T11:52:43;2.45;;;1.10;;
25057;SDS011;13057;50.978;11.034;2023-05-10T11:55:12;1.05;;;0.82;;
25057;SDS011;13057;50.978;11.034;2023-05-10T11:57:38;0.82;;;0.70;;
25057;SDS011;13057;50.978;11.034;2023-05-10T12:00:06;1.83;;;1.00;;
25057;SDS011;13057;50.978;11.034;2023-05-10T12:02:32;1.73;;;1.00;;
25057;SDS011;13057;50.978;11.034;2023-05-10T12:04:58;1.35;;;1.02;;
25057;SDS011;13057;50.978;11.034;2023-05-10T12:07:25;1.42;;;0.90;;
25057;SDS011;13057;50.978;11.034;2023-05-10T12:10:02;2.30;;;1.20;;
25057;SDS011;13057;50.978;11.034;2023-05-10T12:12:39;1.40;;;1.13;;
25057;SDS011;13057;50.978;11.034;2023-05-10T12:15:17;1.02;;;0.70;;
25057;SDS011;13057;50.978;11.034;2023-05-10T12:17:45;0.88;;;0.77;;
25057;SDS011;13057;50.978;11.034;2023-05-10T12:20:18;1.75;;;0.80;;
25057;SDS011;13057;50.978;11.034;2023-05-10T12:22:51;1.05;;;0.80;;
25057;SDS011;13057;50.978;11.034;2023-05-10T12:27:52;0.80;;;0.70;;
25057;SDS011;13057;50.978;11.034;2023-05-10T12:30:21;1.08;;;0.80;;
25057;SDS011;13057;50.978;11.034;2023-05-10T12:32:52;0.70;;;0.50;;
25057;SDS011;13057;50.978;11.034;2023-05-10T12:35:18;2.40;;;0.73;;
25057;SDS011;13057;50.978;11.034;2023-05-10T12:37:47;0.70;;;0.55;;
25057;SDS011;13057;50.978;11.034;2023-05-10T12:40:13;1.65;;;0.80;;
25057;SDS011;13057;50.978;11.034;2023-05-10T12:42:39;1.00;;;0.68;;
25057;SDS011;13057;50.978;11.034;2023-05-10T12:45:06;1.42;;;0.65;;
25057;SDS011;13057;50.978;11.034;2023-05-10T12:47:33;0.98;;;0.57;;
25057;SDS011;13057;50.978;11.034;2023-05-10T12:50:00;4.82;;;0.93;;
25057;SDS011;13057;50.978;11.034;2023-05-10T12:52:27;1.65;;;0.70;;
25057;SDS011;13057;50.978;11.034;2023-05-10T12:54:53;1.48;;;0.75;;
25057;SDS011;13057;50.978;11.034;2023-05-10T12:57:20;1.40;;;0.70;;
25057;SDS011;13057;50.978;11.034;2023-05-10T12:59:46;2.28;;;0.75;;
25057;SDS011;13057;50.978;11.034;2023-05-10T13:02:12;2.90;;;0.50;;
25057;SDS011;13057;50.978;11.034;2023-05-10T13:04:39;2.50;;;0.50;;
25057;SDS011;13057;50.978;11.034;2023-05-10T13:07:06;1.02;;;0.65;;
25057;SDS011;13057;50.978;11.034;2023-05-10T13:09:32;4.03;;;0.70;;
25057;SDS011;13057;50.978;11.034;2023-05-10T13:11:58;0.40;;;0.40;;
25057;SDS011;13057;50.978;11.034;2023-05-10T13:14:24;0.82;;;0.57;;
25057;SDS011;13057;50.978;11.034;2023-05-10T13:16:50;5.15;;;4.00;;
25057;SDS011;13057;50.978;11.034;2023-05-10T13:19:16;1.17;;;0.68;;
25057;SDS011;13057;50.978;11.034;2023-05-10T13:21:43;1.08;;;0.77;;
25057;SDS011;13057;50.978;11.034;2023-05-10T13:24:09;3.17;;;0.95;;
25057;SDS011;13057;50.978;11.034;2023-05-10T13:26:38;1.10;;;0.70;;
25057;SDS011;13057;50.978;11.034;2023-05-10T13:29:05;3.25;;;1.70;;
25057;SDS011;13057;50.978;11.034;2023-05-10T13:31:31;0.80;;;0.63;;
25057;SDS011;13057;50.978;11.034;2023-05-10T13:33:57;2.72;;;1.67;;
25057;SDS011;13057;50.978;11.034;2023-05-10T13:36:23;1.25;;;0.73;;
25057;SDS011;13057;50.978;11.034;2023-05-10T13:38:49;1.38;;;0.70;;
25057;SDS011;13057;50.978;11.034;2023-05-10T13:41:15;1.73;;;1.17;;
25057;SDS011;13057;50.978;11.034;2023-05-10T13:43:43;1.63;;;0.60;;
25057;SDS011;13057;50.978;11.034;2023-05-10T13:46:28;1.23;;;0.55;;
25057;SDS011;13057;50.978;11.034;2023-05-10T13:48:55;1.50;;;0.55;;
25057;SDS011;13057;50.978;11.034;2023-05-10T13:51:22;0.80;;;0.55;;
25057;SDS011;13057;50.978;11.034;2023-05-10T13:53:47;1.27;;;0.60;;
25057;SDS011;13057;50.978;11.034;2023-05-10T13:56:14;3.00;;;0.82;;
25057;SDS011;13057;50.978;11.034;2023-05-10T13:58:40;1.35;;;0.73;;
25057;SDS011;13057;50.978;11.034;2023-05-10T14:01:06;0.85;;;0.70;;
25057;SDS011;13057;50.978;11.034;2023-05-10T14:03:33;2.47;;;0.52;;
25057;SDS011;13057;50.978;11.034;2023-05-10T14:05:58;0.82;;;0.60;;
25057;SDS011;13057;50.978;11.034;2023-05-10T14:08:25;1.02;;;0.60;;
25057;SDS011;13057;50.978;11.034;2023-05-10T14:10:52;1.13;;;0.50;;
25057;SDS011;13057;50.978;11.034;2023-05-10T14:13:18;2.20;;;1.00;;
25057;SDS011;13057;50.978;11.034;2023-05-10T14:15:44;1.90;;;1.10;;
25057;SDS011;13057;50.978;11.034;2023-05-10T14:18:10;2.45;;;1.00;;
25057;SDS011;13057;50.978;11.034;2023-05-10T14:20:36;4.65;;;1.52;;
25057;SDS011;13057;50.978;11.034;2023-05-10T14:23:02;0.63;;;0.60;;
25057;SDS011;13057;50.978;11.034;2023-05-10T14:25:29;0.70;;;0.40;;
25057;SDS011;13057;50.978;11.034;2023-05-10T14:27:55;5.70;;;0.50;;
25057;SDS011;13057;50.978;11.034;2023-05-10T14:30:21;1.27;;;0.80;;
25057;SDS011;13057;50.978;11.034;2023-05-10T14:32:47;3.28;;;1.80;;
25057;SDS011;13057;50.978;11.034;2023-05-10T14:35:13;5.78;;;0.75;;
25057;SDS011;13057;50.978;11.034;2023-05-10T14:37:39;3.42;;;0.80;;
25057;SDS011;13057;50.978;11.034;2023-05-10T14:40:05;0.80;;;0.57;;
25057;SDS011;13057;50.978;11.034;2023-05-10T14:42:32;1.75;;;1.08;;
25057;SDS011;13057;50.978;11.034;2023-05-10T14:44:58;1.20;;;0.85;;
25057;SDS011;13057;50.978;11.034;2023-05-10T14:47:24;2.38;;;1.00;;
25057;SDS011;13057;50.978;11.034;2023-05-10T14:49:49;1.25;;;0.70;;